createdAt,value
2023-04-26T00:02:21.216Z,101726.03
2023-04-26T00:04:56.248Z,101728.53
2023-04-26T00:07:24.948Z,101720.50
2023-04-26T00:09:52.807Z,101725.53
2023-04-26T00:12:20.187Z,101722.78
2023-04-26T00:14:47.180Z,101722.63
2023-04-26T00:17:14.231Z,101725.84
2023-04-26T00:19:41.421Z,101725.69
2023-04-26T00:22:08.873Z,101717.66
2023-04-26T00:24:36.322Z,101723.59
2023-04-26T00:27:08.975Z,101727.75
2023-04-26T00:29:37.336Z,101718.13
2023-04-26T00:32:04.687Z,101722.28
2023-04-26T00:34:36.121Z,101729.16
2023-04-26T00:37:04.826Z,101721.16
2023-04-26T00:39:32.080Z,101723.72
2023-04-26T00:41:59.099Z,101726.09
2023-04-26T00:44:26.094Z,101728.59
2023-04-26T00:46:54.125Z,101727.53
2023-04-26T00:49:25.440Z,101724.81
2023-04-26T00:51:53.688Z,101723.88
2023-04-26T00:54:21.692Z,101720.28
2023-04-26T00:56:52.092Z,101727.22
2023-04-26T00:59:21.075Z,101717.63
2023-04-26T01:01:49.177Z,101717.50
2023-04-26T01:04:17.893Z,101717.34
2023-04-26T01:06:45.998Z,101721.69
2023-04-26T01:09:15.540Z,101720.78
2023-04-26T01:11:43.831Z,101726.81
2023-04-26T01:14:11.442Z,101727.59
2023-04-26T01:16:40.890Z,101736.16
2023-04-26T01:19:13.083Z,101730.84
2023-04-26T01:21:41.619Z,101727.31
2023-04-26T01:24:13.673Z,101731.56
2023-04-26T01:26:46.567Z,101728.00
2023-04-26T01:29:21.451Z,101732.22
2023-04-26T01:31:49.167Z,101733.88
2023-04-26T01:34:16.724Z,101734.66
2023-04-26T01:36:43.689Z,101730.09
2023-04-26T01:39:10.747Z,101733.47
2023-04-26T01:41:37.923Z,101736.06
2023-04-26T01:44:05.367Z,101738.63
2023-04-26T01:46:32.439Z,101729.75
2023-04-26T01:48:59.651Z,101737.44
2023-04-26T01:51:27.199Z,101728.69
2023-04-26T01:53:54.229Z,101731.16
2023-04-26T01:56:23.908Z,101721.50
2023-04-26T01:58:51.415Z,101734.44
2023-04-26T02:01:18.768Z,101736.91
2023-04-26T02:03:45.804Z,101728.94
2023-04-26T02:06:12.752Z,101734.00
2023-04-26T02:08:39.699Z,101738.25
2023-04-26T02:11:07.258Z,101738.91
2023-04-26T02:13:34.318Z,101737.97
2023-04-26T02:16:01.273Z,101739.56
2023-04-26T02:18:29.816Z,101740.22
2023-04-26T02:20:56.899Z,101730.56
2023-04-26T02:23:24.514Z,101733.91
2023-04-26T02:25:51.808Z,101736.44
2023-04-26T02:28:18.853Z,101735.41
2023-04-26T02:30:45.792Z,101736.16
2023-04-26T02:33:12.726Z,101727.38
2023-04-26T02:35:39.782Z,101731.63
2023-04-26T02:38:07.910Z,101731.44
2023-04-26T02:40:34.895Z,101732.16
2023-04-26T02:43:01.880Z,101725.09
2023-04-26T02:45:28.894Z,101725.78
2023-04-26T02:47:56.119Z,101723.91
2023-04-26T02:50:23.800Z,101724.69
2023-04-26T02:52:50.864Z,101721.03
2023-04-26T02:55:17.851Z,101725.25
2023-04-26T02:57:44.862Z,101723.50
2023-04-26T03:00:14.230Z,101715.56
2023-04-26T03:02:42.022Z,101715.31
2023-04-26T03:05:10.646Z,101713.47
2023-04-26T03:07:37.975Z,101703.84
2023-04-26T03:10:05.841Z,101710.66
2023-04-26T03:12:32.896Z,101711.41
2023-04-26T03:14:59.921Z,101708.66
2023-04-26T03:17:26.917Z,101711.09
2023-04-26T03:19:53.936Z,101711.84
2023-04-26T03:22:21.205Z,101709.91
2023-04-26T03:24:49.168Z,101707.22
2023-04-26T03:27:16.565Z,101705.47
2023-04-26T03:29:44.212Z,101707.16
2023-04-26T03:32:11.530Z,101707.91
2023-04-26T03:34:38.607Z,101707.75
2023-04-26T03:37:05.645Z,101710.25
2023-04-26T03:39:32.600Z,101703.22
2023-04-26T03:41:59.646Z,101691.00
2023-04-26T03:44:27.172Z,101701.38
2023-04-26T03:46:55.052Z,101702.91
2023-04-26T03:49:22.120Z,101708.03
2023-04-26T03:51:49.165Z,101706.13
2023-04-26T03:54:16.210Z,101703.44
2023-04-26T03:56:43.233Z,101703.34
2023-04-26T03:59:10.479Z,101705.00
2023-04-26T04:01:37.973Z,101704.91
2023-04-26T04:04:05.513Z,101705.81
2023-04-26T04:06:32.992Z,101713.53
2023-04-26T04:09:00.065Z,101705.63
2023-04-26T04:11:27.055Z,101699.66
2023-04-26T04:13:54.041Z,101701.50
2023-04-26T04:16:21.891Z,101705.94
2023-04-26T04:18:49.037Z,101700.69
2023-04-26T04:21:16.012Z,101700.75
2023-04-26T04:23:44.348Z,101706.13
2023-04-26T04:26:12.690Z,101706.25
2023-04-26T04:28:41.510Z,101704.81
2023-04-26T04:31:11.724Z,101718.81
2023-04-26T04:33:39.225Z,101713.03
2023-04-26T04:36:07.052Z,101714.94
2023-04-26T04:38:34.288Z,101717.69
2023-04-26T04:41:01.313Z,101717.94
2023-04-26T04:43:28.436Z,101719.06
2023-04-26T04:45:55.613Z,101722.03
2023-04-26T04:48:22.710Z,101723.19
2023-04-26T04:50:50.765Z,101723.56
2023-04-26T04:53:17.921Z,101728.22
2023-04-26T04:55:44.976Z,101734.75
2023-04-26T04:58:12.333Z,101737.72
2023-04-26T05:00:39.745Z,101733.00
2023-04-26T05:03:09.923Z,101736.84
2023-04-26T05:05:37.234Z,101740.03
2023-04-26T05:08:04.504Z,101736.22
2023-04-26T05:10:32.098Z,101736.00
2023-04-26T05:12:59.160Z,101723.63
2023-04-26T05:15:26.502Z,101730.38
2023-04-26T05:17:55.830Z,101728.38
2023-04-26T05:20:23.130Z,101732.53
2023-04-26T05:22:50.139Z,101734.69
2023-04-26T05:25:17.706Z,101736.00
2023-04-26T05:27:45.951Z,101740.84
2023-04-26T05:30:13.843Z,101741.44
2023-04-26T05:32:41.698Z,101738.38
2023-04-26T05:35:09.181Z,101736.22
2023-04-26T05:37:36.395Z,101742.69
2023-04-26T05:40:05.171Z,101751.75
2023-04-26T05:42:32.458Z,101750.44
2023-04-26T05:44:59.644Z,101742.91
2023-04-26T05:47:26.753Z,101743.16
2023-04-26T05:49:53.842Z,101746.16
2023-04-26T05:52:21.432Z,101751.63
2023-04-26T05:54:48.492Z,101751.88
2023-04-26T05:57:15.684Z,101746.03
2023-04-26T05:59:42.643Z,101752.47
2023-04-26T06:02:09.747Z,101747.72
2023-04-26T06:04:37.293Z,101753.47
2023-04-26T06:07:04.328Z,101751.34
2023-04-26T06:09:35.870Z,101752.81
2023-04-26T06:12:04.015Z,101752.53
2023-04-26T06:14:31.248Z,101761.78
2023-04-26T06:16:58.537Z,101762.28
2023-04-26T06:19:25.940Z,101769.59
2023-04-26T06:21:55.344Z,101762.84
2023-04-26T06:24:23.646Z,101758.56
2023-04-26T06:26:50.613Z,101764.94
2023-04-26T06:29:18.028Z,101763.44
2023-04-26T06:31:45.005Z,101769.88
2023-04-26T06:34:12.043Z,101770.34
2023-04-26T06:36:39.041Z,101772.75
2023-04-26T06:39:06.330Z,101777.88
2023-04-26T06:41:33.418Z,101780.31
2023-04-26T06:44:00.427Z,101779.13
2023-04-26T06:46:27.517Z,101778.63
2023-04-26T06:48:57.577Z,101793.75
2023-04-26T06:51:24.702Z,101784.28
2023-04-26T06:53:52.834Z,101786.09
2023-04-26T06:56:20.141Z,101781.91
2023-04-26T06:59:00.879Z,101783.03
2023-04-26T07:01:29.473Z,101779.88
2023-04-26T07:04:00.176Z,101779.41
2023-04-26T07:06:27.503Z,101789.41
2023-04-26T07:08:54.669Z,101795.00
2023-04-26T07:11:24.600Z,101782.06
2023-04-26T07:13:53.398Z,101787.47
2023-04-26T07:16:20.793Z,101787.63
2023-04-26T07:18:51.769Z,101790.38
2023-04-26T07:21:19.001Z,101791.56
2023-04-26T07:23:46.148Z,101790.06
2023-04-26T07:26:13.321Z,101796.31
2023-04-26T07:28:40.373Z,101793.00
2023-04-26T07:31:09.579Z,101795.91
2023-04-26T07:33:38.101Z,101791.88
2023-04-26T07:36:05.895Z,101796.47
2023-04-26T07:38:32.859Z,101790.50
2023-04-26T07:41:01.305Z,101786.16
2023-04-26T07:43:29.898Z,101786.38
2023-04-26T07:46:03.281Z,101787.69
2023-04-26T07:48:31.162Z,101774.97
2023-04-26T07:51:06.813Z,101776.97
2023-04-26T07:53:33.862Z,101776.44
2023-04-26T07:56:01.086Z,101773.91
2023-04-26T07:58:28.079Z,101772.03
2023-04-26T08:00:55.191Z,101783.38
2023-04-26T08:03:22.359Z,101785.13
2023-04-26T08:05:49.895Z,101797.44
2023-04-26T08:08:18.892Z,101802.88
2023-04-26T08:10:46.488Z,101802.19
2023-04-26T08:13:13.512Z,101803.16
2023-04-26T08:15:40.650Z,101817.34
2023-04-26T08:18:07.817Z,101816.59
2023-04-26T08:20:34.922Z,101816.78
2023-04-26T08:23:02.041Z,101810.78
2023-04-26T08:25:29.359Z,101811.72
2023-04-26T08:27:56.422Z,101805.50
2023-04-26T08:30:23.688Z,101802.81
2023-04-26T08:32:50.885Z,101810.63
2023-04-26T08:35:18.128Z,101795.59
2023-04-26T08:37:45.112Z,101800.06
2023-04-26T08:40:12.199Z,101798.31
2023-04-26T08:42:44.097Z,101812.53
2023-04-26T08:45:11.771Z,101803.00
2023-04-26T08:47:47.929Z,101795.94
2023-04-26T08:50:18.759Z,101791.53
2023-04-26T08:52:52.212Z,101790.53
2023-04-26T08:55:21.857Z,101790.41
2023-04-26T08:57:50.827Z,101785.84
2023-04-26T09:00:19.692Z,101784.94
2023-04-26T09:02:51.220Z,101795.44
2023-04-26T09:05:24.928Z,101797.19
2023-04-26T09:07:57.318Z,101802.47
2023-04-26T09:10:24.914Z,101798.97
2023-04-26T09:12:53.639Z,101797.25
2023-04-26T09:15:27.776Z,101784.97
2023-04-26T09:17:54.933Z,101790.25
2023-04-26T09:20:28.484Z,101789.44
2023-04-26T09:23:07.425Z,101790.38
2023-04-26T09:25:35.259Z,101787.00
2023-04-26T09:28:18.365Z,101793.50
2023-04-26T09:30:45.543Z,101784.13
2023-04-26T09:33:12.709Z,101783.44
2023-04-26T09:35:44.168Z,101784.31
2023-04-26T09:38:18.661Z,101786.91
2023-04-26T09:40:49.189Z,101783.34
2023-04-26T09:43:18.676Z,101786.94
2023-04-26T09:45:57.732Z,101784.28
2023-04-26T09:48:34.382Z,101786.06
2023-04-26T09:51:04.294Z,101784.31
2023-04-26T09:54:01.337Z,101786.97
2023-04-26T09:56:28.469Z,101788.72
2023-04-26T09:59:05.319Z,101784.28
2023-04-26T10:01:33.427Z,101774.59
2023-04-26T10:04:04.804Z,101778.06
2023-04-26T10:06:33.049Z,101773.63
2023-04-26T10:09:02.543Z,101780.66
2023-04-26T10:11:30.850Z,101770.91
2023-04-26T10:13:58.649Z,101786.66
2023-04-26T10:16:26.151Z,101776.84
2023-04-26T10:18:53.382Z,101778.56
2023-04-26T10:21:28.914Z,101775.00
2023-04-26T10:23:56.683Z,101776.66
2023-04-26T10:26:49.499Z,101771.19
2023-04-26T10:29:16.578Z,101773.72
2023-04-26T10:32:06.604Z,101767.28
2023-04-26T10:34:37.042Z,101772.31
2023-04-26T10:37:16.147Z,101778.31
2023-04-26T10:39:45.472Z,101769.31
2023-04-26T10:42:27.689Z,101756.00
2023-04-26T10:45:00.041Z,101762.34
2023-04-26T10:47:37.107Z,101756.28
2023-04-26T10:50:10.727Z,101755.38
2023-04-26T10:52:59.162Z,101765.16
2023-04-26T10:55:43.030Z,101764.31
2023-04-26T10:58:33.463Z,101756.44
2023-04-26T11:01:17.673Z,101753.03
2023-04-26T11:03:57.135Z,101751.28
2023-04-26T11:06:26.877Z,101751.06
2023-04-26T11:08:54.806Z,101755.31
2023-04-26T11:11:29.053Z,101751.59
2023-04-26T11:13:56.730Z,101748.00
2023-04-26T11:16:28.857Z,101734.81
2023-04-26T11:18:56.395Z,101740.22
2023-04-26T11:21:23.473Z,101743.78
2023-04-26T11:23:55.133Z,101732.25
2023-04-26T11:26:22.392Z,101736.50
2023-04-26T11:28:49.785Z,101730.31
2023-04-26T11:31:19.448Z,101731.25
2023-04-26T11:33:49.839Z,101734.91
2023-04-26T11:36:19.643Z,101729.63
2023-04-26T11:38:46.887Z,101720.69
2023-04-26T11:41:14.023Z,101721.53
2023-04-26T11:43:41.252Z,101715.22
2023-04-26T11:46:10.066Z,101715.06
2023-04-26T11:48:38.994Z,101714.78
2023-04-26T11:51:08.406Z,101712.28
2023-04-26T11:53:40.346Z,101720.56
2023-04-26T11:56:27.839Z,101711.88
2023-04-26T11:58:55.159Z,101718.47
2023-04-26T12:01:24.995Z,101723.94
2023-04-26T12:03:57.970Z,101721.47
2023-04-26T12:06:46.263Z,101726.69
2023-04-26T12:09:14.040Z,101727.47
2023-04-26T12:11:41.309Z,101714.13
2023-04-26T12:14:10.141Z,101725.63
2023-04-26T12:16:37.789Z,101721.41
2023-04-26T12:19:09.850Z,101718.75
2023-04-26T12:21:44.435Z,101713.44
2023-04-26T12:24:39.114Z,101716.09
2023-04-26T12:27:07.858Z,101722.41
2023-04-26T12:29:35.794Z,101721.47
2023-04-26T12:32:04.181Z,101726.69
2023-04-26T12:34:31.602Z,101722.81
2023-04-26T12:37:01.159Z,101725.94
2023-04-26T12:39:28.252Z,101721.41
2023-04-26T12:41:55.398Z,101725.56
2023-04-26T12:44:22.873Z,101728.59
2023-04-26T12:46:50.341Z,101725.38
2023-04-26T12:49:17.496Z,101728.16
2023-04-26T12:51:44.538Z,101730.47
2023-04-26T12:54:11.546Z,101734.63
2023-04-26T12:56:43.750Z,101730.50
2023-04-26T12:59:11.125Z,101730.69
2023-04-26T13:01:38.355Z,101717.31
2023-04-26T13:04:06.035Z,101735.75
2023-04-26T13:06:34.009Z,101720.38
2023-04-26T13:09:01.700Z,101719.16
2023-04-26T13:11:28.801Z,101718.91
2023-04-26T13:13:55.975Z,101723.25
2023-04-26T13:16:24.409Z,101715.16
2023-04-26T13:18:51.670Z,101709.72
2023-04-26T13:21:18.871Z,101711.34
2023-04-26T13:23:46.799Z,101714.06
2023-04-26T13:26:18.972Z,101719.31
2023-04-26T13:28:47.450Z,101722.84
2023-04-26T13:31:17.075Z,101723.47
2023-04-26T13:33:45.785Z,101718.72
2023-04-26T13:36:12.844Z,101714.06
2023-04-26T13:38:40.538Z,101717.63
2023-04-26T13:41:07.913Z,101723.28
2023-04-26T13:43:35.232Z,101726.50
2023-04-26T13:46:02.372Z,101721.59
2023-04-26T13:48:29.799Z,101723.69
2023-04-26T13:50:57.048Z,101718.72
2023-04-26T13:53:24.194Z,101725.97
2023-04-26T13:55:51.196Z,101719.81
2023-04-26T13:58:18.443Z,101716.28
2023-04-26T14:00:45.685Z,101725.97
2023-04-26T14:03:12.970Z,101713.59
2023-04-26T14:05:40.036Z,101715.38
2023-04-26T14:08:08.190Z,101709.13
2023-04-26T14:10:35.223Z,101709.97
2023-04-26T14:13:02.301Z,101710.78
2023-04-26T14:15:29.301Z,101715.22
2023-04-26T14:17:56.340Z,101716.00
2023-04-26T14:20:23.367Z,101712.34
2023-04-26T14:22:50.505Z,101708.81
2023-04-26T14:25:17.684Z,101717.78
2023-04-26T14:27:44.697Z,101709.91
2023-04-26T14:30:12.099Z,101712.66
2023-04-26T14:32:39.267Z,101713.59
2023-04-26T14:35:06.592Z,101716.22
2023-04-26T14:37:33.654Z,101704.69
2023-04-26T14:40:01.050Z,101713.53
2023-04-26T14:42:28.588Z,101703.81
2023-04-26T14:44:59.041Z,101703.72
2023-04-26T14:47:26.282Z,101699.16
2023-04-26T14:49:53.358Z,101698.22
2023-04-26T14:52:20.882Z,101701.91
2023-04-26T14:54:47.885Z,101697.59
2023-04-26T14:57:14.866Z,101699.41
2023-04-26T14:59:42.244Z,101694.22
2023-04-26T15:02:09.251Z,101698.75
2023-04-26T15:04:37.830Z,101697.06
2023-04-26T15:07:05.080Z,101698.13
2023-04-26T15:09:32.466Z,101706.22
2023-04-26T15:11:59.486Z,101690.28
2023-04-26T15:14:26.981Z,101691.09
2023-04-26T15:16:54.755Z,101693.72
2023-04-26T15:19:21.960Z,101688.38
2023-04-26T15:21:49.472Z,101680.31
2023-04-26T15:24:16.482Z,101687.25
2023-04-26T15:26:43.554Z,101681.81
2023-04-26T15:29:10.668Z,101677.50
2023-04-26T15:31:37.731Z,101679.28
2023-04-26T15:34:05.340Z,101676.63
2023-04-26T15:36:32.440Z,101685.19
2023-04-26T15:38:59.512Z,101688.31
2023-04-26T15:41:26.735Z,101678.38
2023-04-26T15:43:57.300Z,101678.97
2023-04-26T15:46:24.426Z,101674.31
2023-04-26T15:48:51.480Z,101672.88
2023-04-26T15:51:18.739Z,101672.59
2023-04-26T15:53:45.765Z,101675.19
2023-04-26T15:56:17.862Z,101672.38
2023-04-26T15:58:48.484Z,101676.88
2023-04-26T16:01:15.779Z,101676.34
2023-04-26T16:03:46.517Z,101676.72
2023-04-26T16:06:14.610Z,101675.16
2023-04-26T16:08:41.794Z,101673.63
2023-04-26T16:11:08.782Z,101682.72
2023-04-26T16:13:36.117Z,101676.91
2023-04-26T16:16:10.675Z,101680.09
2023-04-26T16:18:39.774Z,101675.19
2023-04-26T16:21:12.237Z,101679.91
2023-04-26T16:23:41.851Z,101681.97
2023-04-26T16:26:09.567Z,101674.16
2023-04-26T16:28:36.795Z,101680.53
2023-04-26T16:31:03.965Z,101676.34
2023-04-26T16:33:31.018Z,101671.25
2023-04-26T16:35:58.139Z,101677.75
2023-04-26T16:38:25.159Z,101678.88
2023-04-26T16:40:59.694Z,101671.97
2023-04-26T16:43:30.720Z,101672.94
2023-04-26T16:46:07.023Z,101672.09
2023-04-26T16:48:36.178Z,101666.91
2023-04-26T16:51:07.351Z,101665.16
2023-04-26T16:53:35.982Z,101662.53
2023-04-26T16:56:03.876Z,101669.63
2023-04-26T16:58:30.988Z,101669.63
2023-04-26T17:00:58.027Z,101674.06
2023-04-26T17:03:25.356Z,101667.09
2023-04-26T17:05:52.793Z,101676.06
2023-04-26T17:08:20.214Z,101669.94
2023-04-26T17:10:47.974Z,101666.56
2023-04-26T17:13:15.267Z,101671.03
2023-04-26T17:15:45.141Z,101668.47
2023-04-26T17:18:12.299Z,101674.72
2023-04-26T17:20:39.449Z,101673.88
2023-04-26T17:23:07.981Z,101666.88
2023-04-26T17:25:35.015Z,101676.59
2023-04-26T17:28:02.053Z,101673.09
2023-04-26T17:30:29.102Z,101679.31
2023-04-26T17:32:56.430Z,101663.47
2023-04-26T17:35:23.532Z,101672.28
2023-04-26T17:37:50.713Z,101679.38
2023-04-26T17:40:19.676Z,101673.16
2023-04-26T17:42:46.917Z,101681.06
2023-04-26T17:45:14.754Z,101678.41
2023-04-26T17:47:43.040Z,101676.66
2023-04-26T17:50:10.790Z,101684.59
2023-04-26T17:52:38.390Z,101684.59
2023-04-26T17:55:08.314Z,101683.69
2023-04-26T17:57:36.436Z,101682.78
2023-04-26T18:00:04.659Z,101680.13
2023-04-26T18:02:31.979Z,101680.06
2023-04-26T18:04:59.166Z,101680.91
2023-04-26T18:07:26.594Z,101684.38
2023-04-26T18:09:53.561Z,101693.13
2023-04-26T18:12:20.806Z,101693.03
2023-04-26T18:14:47.941Z,101692.09
2023-04-26T18:17:15.395Z,101695.59
2023-04-26T18:19:42.687Z,101706.09
2023-04-26T18:22:09.917Z,101703.38
2023-04-26T18:24:37.419Z,101703.31
2023-04-26T18:27:04.593Z,101703.25
2023-04-26T18:29:32.087Z,101702.31
2023-04-26T18:31:59.358Z,101699.63
2023-04-26T18:34:26.965Z,101698.66
2023-04-26T18:36:54.163Z,101703.03
2023-04-26T18:39:21.388Z,101704.75
2023-04-26T18:41:48.979Z,101703.78
2023-04-26T18:44:16.234Z,101709.94
2023-04-26T18:46:43.479Z,101708.97
2023-04-26T18:49:11.118Z,101714.22
2023-04-26T18:51:38.208Z,101719.44
2023-04-26T18:54:05.549Z,101717.66
2023-04-26T18:56:32.658Z,101721.09
2023-04-26T18:58:59.747Z,101721.91
2023-04-26T19:01:26.971Z,101719.16
2023-04-26T19:03:54.278Z,101712.88
2023-04-26T19:06:22.287Z,101714.59
2023-04-26T19:08:49.390Z,101721.53
2023-04-26T19:11:16.465Z,101727.59
2023-04-26T19:13:43.495Z,101722.25
2023-04-26T19:16:11.228Z,101731.84
2023-04-26T19:18:40.662Z,101732.66
2023-04-26T19:21:08.406Z,101733.50
2023-04-26T19:23:36.698Z,101739.63
2023-04-26T19:26:14.384Z,101739.56
2023-04-26T19:28:41.713Z,101737.78
2023-04-26T19:31:08.808Z,101742.16
2023-04-26T19:33:36.968Z,101744.72
2023-04-26T19:36:04.446Z,101747.31
2023-04-26T19:38:34.160Z,101748.09
2023-04-26T19:41:01.843Z,101741.94
2023-04-26T19:43:28.868Z,101743.59
2023-04-26T19:45:56.066Z,101749.69
2023-04-26T19:48:23.101Z,101747.03
2023-04-26T19:50:50.148Z,101747.84
2023-04-26T19:53:17.251Z,101752.22
2023-04-26T19:55:44.311Z,101746.91
2023-04-26T19:58:11.517Z,101750.34
2023-04-26T20:00:39.922Z,101747.69
2023-04-26T20:03:07.201Z,101745.03
2023-04-26T20:05:34.568Z,101753.78
2023-04-26T20:08:02.068Z,101758.09
2023-04-26T20:10:36.229Z,101751.03
2023-04-26T20:13:03.239Z,101762.34
2023-04-26T20:15:33.907Z,101764.97
2023-04-26T20:18:02.402Z,101755.28
2023-04-26T20:20:29.577Z,101754.34
2023-04-26T20:22:56.608Z,101754.28
2023-04-26T20:25:23.756Z,101754.19
2023-04-26T20:27:51.014Z,101761.16
2023-04-26T20:30:18.105Z,101759.25
2023-04-26T20:32:45.132Z,101752.22
2023-04-26T20:35:13.718Z,101756.50
2023-04-26T20:37:40.894Z,101765.22
2023-04-26T20:40:09.292Z,101757.22
2023-04-26T20:42:36.386Z,101759.72
2023-04-26T20:45:03.956Z,101759.59
2023-04-26T20:47:31.413Z,101751.53
2023-04-26T20:49:58.576Z,101753.16
2023-04-26T20:52:25.660Z,101755.69
2023-04-26T20:54:52.683Z,101758.22
2023-04-26T20:57:19.710Z,101763.34
2023-04-26T20:59:46.765Z,101765.84
2023-04-26T21:02:13.925Z,101763.19
2023-04-26T21:04:42.810Z,101765.69
2023-04-26T21:07:10.874Z,101778.78
2023-04-26T21:09:38.176Z,101769.09
2023-04-26T21:12:05.760Z,101775.16
2023-04-26T21:14:32.898Z,101770.69
2023-04-26T21:17:01.426Z,101771.47
2023-04-26T21:19:28.576Z,101776.63
2023-04-26T21:21:55.684Z,101768.63
2023-04-26T21:24:22.817Z,101776.41
2023-04-26T21:26:50.054Z,101777.19
2023-04-26T21:29:17.119Z,101786.66
2023-04-26T21:31:44.369Z,101787.44
2023-04-26T21:34:11.634Z,101782.03
2023-04-26T21:36:38.787Z,101776.63
2023-04-26T21:39:06.048Z,101780.06
2023-04-26T21:41:33.024Z,101779.06
2023-04-26T21:44:00.127Z,101774.59
2023-04-26T21:46:27.163Z,101778.88
2023-04-26T21:48:54.122Z,101772.63
2023-04-26T21:51:21.201Z,101773.38
2023-04-26T21:53:48.249Z,101771.53
2023-04-26T21:56:15.305Z,101769.69
2023-04-26T21:58:42.803Z,101775.72
2023-04-26T22:01:12.324Z,101774.72
2023-04-26T22:03:39.977Z,101776.41
2023-04-26T22:06:08.646Z,101778.03
2023-04-26T22:08:36.002Z,101772.69
2023-04-26T22:11:03.326Z,101776.06
2023-04-26T22:13:31.397Z,101775.09
2023-04-26T22:15:58.507Z,101771.47
2023-04-26T22:18:26.467Z,101776.63
2023-04-26T22:20:53.946Z,101776.50
2023-04-26T22:23:21.170Z,101777.19
2023-04-26T22:25:48.199Z,101775.31
2023-04-26T22:28:16.697Z,101775.22
2023-04-26T22:30:43.772Z,101775.09
2023-04-26T22:33:12.265Z,101765.31
2023-04-26T22:35:39.715Z,101773.94
2023-04-26T22:38:06.763Z,101777.31
2023-04-26T22:40:33.863Z,101775.47
2023-04-26T22:43:01.076Z,101775.31
2023-04-26T22:45:28.235Z,101775.22
2023-04-26T22:47:55.370Z,101783.81
2023-04-26T22:50:22.731Z,101782.84
2023-04-26T22:52:52.171Z,101787.94
2023-04-26T22:55:19.211Z,101789.50
2023-04-26T22:57:46.998Z,101795.41
2023-04-26T23:00:14.839Z,101801.25
2023-04-26T23:02:42.163Z,101796.72
2023-04-26T23:05:10.330Z,101793.06
2023-04-26T23:07:39.044Z,101796.44
2023-04-26T23:10:07.829Z,101799.78
2023-04-26T23:12:38.422Z,101808.44
2023-04-26T23:15:06.291Z,101797.84
2023-04-26T23:17:34.241Z,101803.84
2023-04-26T23:20:01.794Z,101802.00
2023-04-26T23:22:28.796Z,101799.34
2023-04-26T23:24:55.933Z,101798.38
2023-04-26T23:27:24.762Z,101806.22
2023-04-26T23:29:51.872Z,101810.53
2023-04-26T23:32:18.901Z,101818.31
2023-04-26T23:34:45.964Z,101821.75
2023-04-26T23:37:12.957Z,101829.50
2023-04-26T23:39:39.971Z,101829.47
2023-04-26T23:42:07.126Z,101834.66
2023-04-26T23:44:34.127Z,101838.94
2023-04-26T23:47:01.229Z,101835.34
2023-04-26T23:49:28.614Z,101836.97
2023-04-26T23:51:55.745Z,101842.03
2023-04-26T23:54:22.836Z,101834.09
2023-04-26T23:56:49.860Z,101826.94
2023-04-26T23:59:16.963Z,101832.03
